Time;durP1;ratioP1;P1;durP2;ratioP2;P2;SDS_P1;SDS_P2;PMS_P1;PMS_P2;Temp;Humidity;BMP_temperature;BMP_pressure;BME280_temperature;BME280_humidity;BME280_pressure;Samples;Min_cycle;Max_cycle;Signal;HPM_P1;HPM_P2
2021/06/30 00:30:13;;;;;;;30.75;16.45;;;;;;;12.56;91.07;100797.94;4845701;29;20064;-85
2021/06/30 00:32:38;;;;;;;33.25;17.30;;;;;;;12.45;91.24;100783.25;4847687;29;20074;-85
2021/06/30 00:35:04;;;;;;;35.10;17.30;;;;;;;12.68;91.39;100820.56;4846693;29;20018;-86
2021/06/30 00:37:30;;;;;;;38.55;16.85;;;;;;;12.68;91.14;100819.69;4847535;29;20022;-86
2021/06/30 00:52:52;;;;;;;32.65;17.02;;;;;;;12.78;91.61;100827.34;4882057;24;20046;-85
2021/06/30 00:55:18;;;;;;;36.53;18.30;;;;;;;12.55;91.39;100792.75;4847187;29;20018;-85
2021/06/30 00:57:44;;;;;;;32.42;17.50;;;;;;;13.00;91.81;100879.22;4836129;29;20015;-84
2021/06/30 01:00:10;;;;;;;37.92;17.42;;;;;;;13.29;91.39;100932.78;4829378;29;20034;-85
2021/06/30 01:49:09;;;;;;;32.65;18.98;;;;;;;12.08;91.54;100852.19;4906096;24;20043;-86
2021/06/30 01:54:13;;;;;;;33.42;19.15;;;;;;;11.80;91.61;100816.50;5743133;24;20048;-86
2021/06/30 01:56:41;;;;;;;36.58;18.88;;;;;;;11.78;91.86;100827.47;4848914;29;20022;-85
2021/06/30 02:09:42;;;;;;;37.95;20.52;;;;;;;12.37;91.93;100920.25;5412939;24;20036;-83
2021/06/30 02:56:05;;;;;;;42.58;22.52;;;;;;;11.75;91.10;100749.69;5735681;24;20053;-84
2021/06/30 02:58:31;;;;;;;49.17;22.40;;;;;;;11.66;90.53;100735.63;4850660;29;20011;-85
2021/06/30 03:26:42;;;;;;;35.78;21.08;;;;;;;13.14;86.53;100830.34;5882545;24;20013;-78
2021/06/30 03:29:08;;;;;;;34.75;20.05;;;;;;;14.13;84.65;100909.19;4829980;29;20054;-85
2021/06/30 03:34:09;;;;;;;30.02;17.63;;;;;;;13.15;84.35;100777.13;5137118;24;20054;-86
2021/06/30 04:10:53;;;;;;;61.20;23.15;;;;;;;11.96;91.84;100934.75;5739569;24;20292;-83
2021/06/30 04:13:20;;;;;;;46.60;21.38;;;;;;;11.43;91.77;100841.13;4847808;29;20027;-84
2021/06/30 04:26:07;;;;;;;36.58;20.02;;;;;;;12.13;89.68;100838.09;5257739;24;20062;-83
2021/06/30 04:28:32;;;;;;;36.10;19.63;;;;;;;11.97;90.25;100798.88;4900815;24;20059;-82
2021/06/30 04:30:58;;;;;;;33.42;19.48;;;;;;;12.52;89.79;100861.50;4849223;29;20045;-85
2021/06/30 04:33:24;;;;;;;31.95;19.38;;;;;;;12.28;89.28;100816.28;4839837;29;20021;-85
2021/06/30 04:35:50;;;;;;;31.63;19.90;;;;;;;12.65;89.20;100837.19;4848686;29;20093;-84
2021/06/30 04:38:15;;;;;;;27.13;18.10;;;;;;;13.03;88.69;100881.50;4865498;29;20045;-84
2021/06/30 04:40:41;;;;;;;26.50;17.98;;;;;;;13.05;87.36;100820.00;5395603;23;20066;-83
2021/06/30 05:08:47;;;;;;;21.95;13.82;;;;;;;16.99;75.65;100979.66;4853473;29;20054;-84
2021/06/30 05:11:14;;;;;;;21.75;13.73;;;;;;;15.68;76.50;100832.25;4848136;29;20062;-84
2021/06/30 05:39:31;;;;;;;18.35;10.88;;;;;;;16.14;74.04;100814.38;5617741;24;20262;-85
2021/06/30 05:41:58;;;;;;;21.20;10.88;;;;;;;16.42;73.45;100824.50;4843969;29;20045;-83
2021/06/30 05:59:54;;;;;;;12.45;9.02;;;;;;;16.55;70.59;100812.56;5709762;23;20054;-85
2021/06/30 06:10:10;;;;;;;14.18;8.95;;;;;;;17.22;69.69;100822.94;5501025;24;20066;-85
2021/06/30 06:15:11;;;;;;;17.45;9.38;;;;;;;17.83;68.85;100859.47;5882332;23;20024;-77
2021/06/30 06:17:38;;;;;;;13.27;8.85;;;;;;;18.52;67.63;100960.03;5612341;24;20066;-85
2021/06/30 06:20:05;;;;;;;15.60;8.80;;;;;;;17.20;67.48;100806.88;4845686;29;20027;-87
2021/06/30 06:22:31;;;;;;;13.18;8.55;;;;;;;17.29;67.41;100783.66;4848695;29;20018;-85
2021/06/30 06:24:58;;;;;;;14.57;9.15;;;;;;;17.68;67.38;100868.16;4842149;29;20034;-86
2021/06/30 06:27:24;;;;;;;17.15;9.30;;;;;;;17.35;67.76;100809.91;4844534;29;20022;-85
2021/06/30 06:29:51;;;;;;;12.32;9.00;;;;;;;17.60;68.21;100863.94;4848505;29;20086;-85
2021/06/30 06:32:18;;;;;;;15.80;9.52;;;;;;;17.00;69.61;100815.47;4849428;29;20453;-86
2021/06/30 07:16:07;;;;;;;17.50;9.77;;;;;;;16.35;75.02;100900.66;5002571;24;20070;-85
2021/06/30 07:18:34;;;;;;;16.00;10.25;;;;;;;16.08;74.91;100850.59;4848208;29;20022;-86
2021/06/30 07:23:35;;;;;;;16.38;10.30;;;;;;;16.57;75.08;100897.38;5245164;24;20046;-85
2021/06/30 11:08:07;;;;;;;10.13;5.80;;;;;;;21.27;62.84;101016.88;1214626;24;20385;-82
2021/06/30 11:10:34;;;;;;;8.65;5.93;;;;;;;20.90;64.21;101005.97;5618110;24;20045;-81
2021/06/30 11:13:00;;;;;;;9.02;5.75;;;;;;;19.79;64.06;100846.28;5075813;24;20045;-83
2021/06/30 11:15:38;;;;;;;10.18;5.97;;;;;;;20.82;64.62;101018.22;4866999;29;20018;-83
2021/06/30 11:18:33;;;;;;;10.25;6.35;;;;;;;19.89;64.27;100881.88;4865096;29;20041;-83
2021/06/30 11:21:03;;;;;;;9.02;6.15;;;;;;;20.82;64.30;101042.00;4862864;29;20029;-82
2021/06/30 11:23:29;;;;;;;11.75;6.15;;;;;;;19.76;64.26;100856.91;4851225;29;20061;-82
2021/06/30 11:26:34;;;;;;;7.45;5.63;;;;;;;20.22;63.92;100941.97;4866002;29;20085;-84
2021/06/30 11:28:59;;;;;;;10.40;6.20;;;;;;;20.17;64.40;100915.44;4857802;29;20034;-85
2021/06/30 11:34:22;;;;;;;9.13;6.00;;;;;;;20.79;63.83;101017.91;5123461;23;20054;-84
2021/06/30 11:36:47;;;;;;;8.07;6.15;;;;;;;19.89;64.32;100895.53;4841242;29;20027;-81
2021/06/30 11:39:17;;;;;;;12.90;6.05;;;;;;;19.76;64.17;100851.44;4833903;29;20360;-80
2021/06/30 11:41:49;;;;;;;10.40;6.50;;;;;;;20.38;64.02;100936.38;4842534;29;20014;-81
2021/06/30 11:44:18;;;;;;;10.27;6.28;;;;;;;19.75;64.56;100874.38;4836714;29;20065;-82
2021/06/30 11:46:44;;;;;;;8.18;5.80;;;;;;;20.17;64.24;100935.41;4832982;29;20011;-81
2021/06/30 11:49:12;;;;;;;9.25;6.53;;;;;;;20.77;64.58;101039.25;4837212;29;20037;-84
2021/06/30 11:51:42;;;;;;;11.75;6.13;;;;;;;20.12;64.86;100942.72;4838188;29;20035;-84
2021/06/30 11:54:16;;;;;;;9.25;6.40;;;;;;;20.15;63.72;100925.81;4835459;29;20064;-83
2021/06/30 11:56:45;;;;;;;9.15;6.20;;;;;;;19.69;64.34;100857.94;4843437;29;20030;-84
2021/06/30 11:59:22;;;;;;;8.80;6.20;;;;;;;19.83;64.05;100852.03;4837691;29;20030;-82
2021/06/30 12:01:51;;;;;;;9.82;6.53;;;;;;;19.80;63.62;100836.16;4846380;29;20025;-83
2021/06/30 12:04:27;;;;;;;9.07;6.10;;;;;;;19.71;64.14;100841.31;4845660;29;20027;-83
2021/06/30 12:32:50;;;;;;;11.88;7.25;;;;;;;20.51;64.77;101033.56;5524401;24;20095;-85
2021/06/30 12:35:25;;;;;;;10.82;7.43;;;;;;;19.81;64.96;100930.69;4855319;29;20030;-84
2021/06/30 12:38:07;;;;;;;11.88;7.60;;;;;;;20.03;64.89;100930.59;4838034;29;20098;-84
2021/06/30 12:40:34;;;;;;;11.48;7.10;;;;;;;19.64;64.41;100893.38;4840855;29;20381;-84
2021/06/30 12:43:16;;;;;;;8.45;7.45;;;;;;;19.61;64.65;100885.66;4841529;29;20038;-85
2021/06/30 12:45:50;;;;;;;12.02;7.25;;;;;;;20.63;64.92;101027.94;4847581;29;20027;-84
2021/06/30 12:48:33;;;;;;;11.60;7.22;;;;;;;19.36;64.38;100819.91;4833038;29;20543;-84
2021/06/30 12:51:14;;;;;;;10.75;7.13;;;;;;;20.00;64.49;100921.03;4844478;29;20059;-84
2021/06/30 12:53:43;;;;;;;13.40;7.93;;;;;;;19.83;64.50;100910.19;4847013;29;20025;-84
2021/06/30 12:56:24;;;;;;;10.45;7.35;;;;;;;19.39;64.46;100835.75;4843798;29;20076;-83
2021/06/30 12:58:57;;;;;;;13.27;8.10;;;;;;;19.37;63.96;100832.44;5130570;24;20042;-85
2021/06/30 13:06:33;;;;;;;10.60;7.72;;;;;;;19.10;64.19;100846.88;5337010;24;20044;-83
2021/06/30 13:11:42;;;;;;;10.20;7.20;;;;;;;19.84;63.88;100902.88;5548283;24;20053;-84
2021/06/30 13:14:15;;;;;;;11.47;7.40;;;;;;;20.40;64.12;100990.78;4837107;29;20060;-84
2021/06/30 13:16:51;;;;;;;9.57;6.75;;;;;;;20.38;63.40;101001.16;4844477;29;20286;-86
2021/06/30 13:19:21;;;;;;;8.18;6.88;;;;;;;19.60;63.66;100918.66;4843564;29;20011;-85
2021/06/30 13:22:26;;;;;;;10.73;6.40;;;;;;;19.89;63.22;100920.09;4842464;29;20022;-83
2021/06/30 13:24:56;;;;;;;9.00;6.25;;;;;;;20.11;62.81;100936.44;4839950;29;20042;-82
2021/06/30 13:35:28;;;;;;;8.95;5.95;;;;;;;20.67;62.78;101004.44;4838797;29;20026;-82
2021/06/30 13:37:59;;;;;;;10.63;7.00;;;;;;;19.91;62.49;100953.44;4842099;29;20030;-83
2021/06/30 13:40:27;;;;;;;13.85;7.22;;;;;;;19.99;62.95;100968.53;4841787;29;20043;-82
2021/06/30 13:42:54;;;;;;;9.98;7.10;;;;;;;20.45;63.02;101042.75;4845649;29;20026;-82
2021/06/30 13:45:23;;;;;;;11.05;6.82;;;;;;;20.16;62.84;100998.47;4842130;29;20038;-83
2021/06/30 13:47:49;;;;;;;10.25;6.45;;;;;;;19.40;62.66;100859.22;4840932;29;20027;-83
2021/06/30 13:50:16;;;;;;;7.07;6.05;;;;;;;19.53;61.89;100886.13;4840908;29;20074;-83
2021/06/30 13:52:42;;;;;;;9.25;6.22;;;;;;;20.61;61.55;101044.59;5105842;24;20123;-82
2021/06/30 13:55:11;;;;;;;7.85;6.72;;;;;;;20.09;62.43;100976.81;4843638;29;20019;-83
2021/06/30 13:57:40;;;;;;;5.70;5.18;;;;;;;20.46;61.70;101041.66;4826270;29;20027;-83
2021/06/30 14:00:08;;;;;;;6.70;5.50;;;;;;;19.43;61.75;100834.97;4827867;29;20049;-84
2021/06/30 14:02:34;;;;;;;6.82;5.53;;;;;;;20.82;61.44;101063.88;4829624;29;20038;-83
2021/06/30 14:05:00;;;;;;;8.73;6.07;;;;;;;19.67;61.81;100875.66;4828787;29;20030;-83
2021/06/30 14:07:28;;;;;;;6.75;6.07;;;;;;;20.92;62.11;101055.75;4828997;29;20018;-83
2021/06/30 14:09:56;;;;;;;8.30;6.50;;;;;;;19.40;62.25;100848.31;4827914;29;20062;-83
2021/06/30 14:12:24;;;;;;;7.55;5.95;;;;;;;20.65;62.35;101048.44;4828589;29;20038;-82
2021/06/30 14:14:54;;;;;;;7.05;5.80;;;;;;;20.32;61.73;100996.72;4829024;29;20047;-82
2021/06/30 14:17:21;;;;;;;5.95;5.32;;;;;;;20.31;61.57;100975.94;4828428;29;20045;-83
2021/06/30 14:19:51;;;;;;;6.65;5.68;;;;;;;19.74;61.51;100914.50;4829078;29;20013;-81
2021/06/30 14:22:25;;;;;;;7.45;5.63;;;;;;;19.14;61.41;100869.03;4833026;29;20074;-82
2021/06/30 14:24:52;;;;;;;7.78;5.75;;;;;;;19.74;61.95;100947.25;4827553;29;20011;-83
2021/06/30 14:27:21;;;;;;;10.38;6.38;;;;;;;19.21;61.63;100865.03;4829558;29;20029;-84
2021/06/30 14:32:26;;;;;;;8.02;6.10;;;;;;;20.42;61.74;101040.53;4847455;29;20038;-82
2021/06/30 14:34:53;;;;;;;10.90;6.00;;;;;;;19.42;61.91;100892.56;4849043;29;20077;-80
2021/06/30 15:07:36;;;;;;;9.25;5.68;;;;;;;20.16;61.14;100982.09;5702254;24;20242;-84
2021/06/30 15:10:11;;;;;;;8.70;6.70;;;;;;;19.87;61.39;100924.19;4842941;29;20050;-84
2021/06/30 15:12:36;;;;;;;8.13;6.40;;;;;;;20.85;61.64;101063.38;4844597;29;20026;-83
2021/06/30 15:15:04;;;;;;;8.25;6.30;;;;;;;20.81;61.92;101082.22;4847592;29;20026;-85
2021/06/30 15:17:30;;;;;;;7.45;6.50;;;;;;;20.83;61.95;101076.50;4846518;29;20093;-85
2021/06/30 15:19:55;;;;;;;7.53;6.50;;;;;;;20.70;62.42;101079.66;4847701;29;20052;-86
2021/06/30 15:22:20;;;;;;;8.98;6.22;;;;;;;20.80;62.48;101077.03;4840710;29;20035;-85
2021/06/30 15:32:59;;;;;;;7.53;5.68;;;;;;;19.29;62.31;100880.13;5583352;24;20276;-85
2021/06/30 15:35:25;;;;;;;7.50;5.68;;;;;;;19.76;62.55;100972.38;4833621;29;20054;-85
2021/06/30 15:40:26;;;;;;;7.07;5.97;;;;;;;20.49;62.60;101082.16;5710465;24;20054;-84
2021/06/30 16:05:48;;;;;;;7.50;6.15;;;;;;;20.17;63.11;101044.69;5112562;24;20058;-84
2021/06/30 16:08:14;;;;;;;8.35;6.55;;;;;;;20.18;63.42;101070.91;4857950;29;20033;-85
2021/06/30 16:10:39;;;;;;;9.52;6.53;;;;;;;20.23;63.75;101080.25;4863008;29;20101;-84
2021/06/30 16:13:05;;;;;;;9.82;6.43;;;;;;;20.10;63.58;101092.41;4865306;29;20022;-86
2021/06/30 16:18:07;;;;;;;8.38;5.80;;;;;;;19.72;63.51;100987.63;5559914;24;20058;-84
2021/06/30 16:23:07;;;;;;;9.07;6.53;;;;;;;19.07;63.21;100931.94;5233383;24;20049;-86
2021/06/30 16:25:34;;;;;;;12.73;11.38;;;;;;;19.73;62.69;101029.41;4847907;29;20062;-85
2021/06/30 16:35:49;;;;;;;8.20;6.38;;;;;;;19.15;63.07;100945.16;4966260;24;20062;-83
2021/06/30 16:38:14;;;;;;;6.53;5.85;;;;;;;19.18;63.53;100960.22;4845518;29;20014;-84
2021/06/30 16:40:44;;;;;;;9.48;5.63;;;;;;;19.38;63.83;101014.22;4843176;29;20086;-82
2021/06/30 16:43:16;;;;;;;7.97;6.30;;;;;;;19.60;64.13;101033.31;4845779;29;20026;-83
2021/06/30 16:58:34;;;;;;;6.97;6.28;;;;;;;18.97;64.15;100926.34;4845111;29;20039;-84
2021/06/30 17:01:00;;;;;;;7.53;6.40;;;;;;;19.38;64.08;100986.94;4839389;29;20082;-84
2021/06/30 17:11:11;;;;;;;7.50;6.10;;;;;;;19.76;61.95;100908.78;4974151;24;20046;-81
2021/06/30 17:18:49;;;;;;;8.63;6.28;;;;;;;19.31;62.93;100899.00;5590118;24;20042;-83
2021/06/30 17:21:17;;;;;;;7.80;6.10;;;;;;;19.80;62.53;100968.09;5334605;24;20040;-83
2021/06/30 17:23:45;;;;;;;6.63;5.88;;;;;;;19.31;63.16;100921.63;4831569;29;20054;-83
2021/06/30 17:26:11;;;;;;;8.32;6.03;;;;;;;19.48;63.54;100970.69;4842899;29;20014;-85
2021/06/30 17:28:37;;;;;;;6.78;6.07;;;;;;;19.84;63.08;101025.75;4829386;29;20048;-84
2021/06/30 17:31:03;;;;;;;7.07;6.25;;;;;;;19.14;63.26;100918.97;4815488;29;20011;-83
2021/06/30 17:33:29;;;;;;;12.00;6.50;;;;;;;19.33;63.22;100940.47;4825893;29;20043;-85
2021/06/30 17:35:55;;;;;;;9.20;6.53;;;;;;;19.23;63.62;100958.34;4849777;23;20057;-84
2021/06/30 17:40:57;;;;;;;9.70;6.28;;;;;;;19.03;63.83;100930.81;5371473;24;20054;-85
2021/06/30 17:43:26;;;;;;;8.98;6.80;;;;;;;19.38;63.41;100981.47;4840469;29;20034;-85
2021/06/30 17:45:54;;;;;;;7.88;6.07;;;;;;;19.76;63.15;101029.72;4847863;29;20014;-83
2021/06/30 17:48:20;;;;;;;7.78;6.47;;;;;;;18.85;64.05;100920.22;4835364;29;20026;-84
2021/06/30 17:50:46;;;;;;;9.30;6.20;;;;;;;18.65;64.05;100913.34;4842964;29;20022;-85
2021/06/30 17:53:12;;;;;;;7.97;6.45;;;;;;;18.80;64.20;100942.75;4989236;24;20082;-83
2021/06/30 17:55:39;;;;;;;10.63;7.00;;;;;;;18.89;64.64;100984.06;4846484;29;20116;-83
2021/06/30 17:58:05;;;;;;;9.60;6.50;;;;;;;19.82;64.49;101112.53;4841424;29;20030;-83
2021/06/30 18:00:32;;;;;;;10.15;6.35;;;;;;;19.15;64.18;100999.72;4830817;29;20031;-79
2021/06/30 18:02:59;;;;;;;10.35;6.55;;;;;;;19.64;63.87;101040.78;4835115;29;20014;-81
2021/06/30 18:05:27;;;;;;;9.30;6.55;;;;;;;19.79;63.70;101052.97;4837991;29;20027;-80
2021/06/30 18:07:53;;;;;;;8.82;6.03;;;;;;;19.13;63.70;100984.66;4842025;29;20059;-81
2021/06/30 18:10:22;;;;;;;8.15;6.30;;;;;;;19.86;63.99;101110.94;4840300;29;20041;-82
2021/06/30 18:12:48;;;;;;;8.25;6.32;;;;;;;19.04;64.19;101019.75;4831828;29;20037;-84
2021/06/30 18:15:13;;;;;;;8.73;6.00;;;;;;;19.05;64.37;101037.75;4843302;29;20082;-82
2021/06/30 18:17:39;;;;;;;7.22;5.88;;;;;;;18.35;63.79;100916.44;4843784;29;20089;-83
2021/06/30 18:20:07;;;;;;;8.05;5.90;;;;;;;18.52;63.86;100935.50;4840730;29;20069;-83
2021/06/30 18:22:33;;;;;;;8.30;5.65;;;;;;;19.12;63.33;101008.41;4971200;24;20202;-81
2021/06/30 18:25:00;;;;;;;9.05;5.90;;;;;;;19.47;62.26;101024.44;4844347;29;20050;-82
2021/06/30 18:27:26;;;;;;;8.38;5.95;;;;;;;20.14;62.24;101129.91;4846510;29;20047;-83
2021/06/30 18:29:51;;;;;;;7.43;6.45;;;;;;;19.86;62.43;101130.06;4844311;29;20054;-82
2021/06/30 18:32:17;;;;;;;8.13;6.07;;;;;;;19.63;63.32;101123.75;4834548;29;20492;-80
2021/06/30 18:34:43;;;;;;;10.88;5.88;;;;;;;19.58;63.64;101139.22;4825545;29;20026;-81
2021/06/30 18:37:08;;;;;;;7.70;5.50;;;;;;;19.48;63.37;101134.44;4843364;29;20034;-82
2021/06/30 18:39:34;;;;;;;7.88;5.63;;;;;;;19.33;63.11;101107.72;4846626;29;20030;-82
2021/06/30 18:42:00;;;;;;;6.65;5.95;;;;;;;19.57;63.00;101134.81;4837052;29;20060;-83
2021/06/30 18:44:26;;;;;;;6.60;5.60;;;;;;;18.37;63.03;100952.41;5128244;24;20058;-83
2021/06/30 18:46:53;;;;;;;7.35;5.70;;;;;;;19.10;62.68;101026.09;5326206;24;20051;-83
2021/06/30 18:49:20;;;;;;;7.20;5.78;;;;;;;19.40;62.43;101088.44;4811080;29;20038;-82
2021/06/30 18:51:47;;;;;;;7.70;5.30;;;;;;;19.44;62.24;101085.00;4811492;29;20037;-82
2021/06/30 18:54:15;;;;;;;7.45;5.40;;;;;;;19.75;61.76;101096.34;4811692;29;20039;-82
2021/06/30 18:56:46;;;;;;;9.50;5.63;;;;;;;19.24;61.92;101030.94;4815151;29;20027;-82
2021/06/30 18:59:13;;;;;;;9.65;5.40;;;;;;;19.33;61.75;101016.88;4819983;29;20035;-83
2021/06/30 19:01:40;;;;;;;5.82;5.22;;;;;;;18.72;62.07;100951.38;4828886;29;20023;-83
2021/06/30 19:11:47;;;;;;;7.68;5.53;;;;;;;19.46;61.31;101087.44;5191964;24;20075;-84
2021/06/30 19:14:13;;;;;;;6.38;5.20;;;;;;;18.65;60.76;100953.41;4846235;29;20033;-82
2021/06/30 19:16:44;;;;;;;5.47;4.97;;;;;;;19.05;61.02;101029.56;4842537;29;20054;-84
2021/06/30 19:19:12;;;;;;;7.68;5.65;;;;;;;18.49;60.99;100966.78;4845733;29;20029;-84
2021/06/30 19:21:41;;;;;;;7.47;5.60;;;;;;;19.37;61.55;101097.13;4845761;29;20014;-83
2021/06/30 19:24:07;;;;;;;9.05;5.47;;;;;;;18.64;61.35;100979.00;4854635;29;20034;-83
2021/06/30 19:26:34;;;;;;;7.10;5.65;;;;;;;19.08;61.74;101047.34;5292319;23;20054;-82
2021/06/30 19:29:01;;;;;;;6.60;5.20;;;;;;;18.71;63.07;101036.94;4845386;29;20113;-84
2021/06/30 19:31:27;;;;;;;8.55;5.68;;;;;;;19.41;63.64;101182.91;4846056;29;20014;-83
2021/06/30 19:36:30;;;;;;;11.70;5.45;;;;;;;18.31;64.13;101021.53;5009268;24;20042;-82
2021/06/30 19:38:56;;;;;;;6.78;5.53;;;;;;;18.13;64.76;101013.56;4839086;29;20017;-82
2021/06/30 19:41:21;;;;;;;8.50;6.00;;;;;;;17.98;65.15;101017.66;4847540;29;20030;-85
2021/06/30 19:43:47;;;;;;;8.32;5.47;;;;;;;17.88;65.54;101022.91;4847057;29;20054;-83
2021/06/30 19:46:14;;;;;;;10.95;5.75;;;;;;;18.03;66.18;101074.09;4845706;29;20035;-83
2021/06/30 19:48:40;;;;;;;7.50;5.70;;;;;;;17.90;66.65;101066.22;4846470;29;20041;-83
2021/06/30 19:51:13;;;;;;;8.45;5.82;;;;;;;18.15;67.17;101137.53;4843789;29;20034;-81
2021/06/30 19:53:39;;;;;;;6.55;5.50;;;;;;;17.44;67.43;101027.94;4846691;29;20033;-81
2021/06/30 19:56:05;;;;;;;10.35;6.10;;;;;;;17.72;67.72;101072.63;4844926;29;20011;-81
2021/06/30 19:58:30;;;;;;;11.88;6.40;;;;;;;17.09;67.97;100998.91;4840949;29;20006;-82
2021/06/30 20:00:57;;;;;;;7.95;6.25;;;;;;;17.97;68.48;101146.66;4842481;29;20006;-82
2021/06/30 20:03:24;;;;;;;8.77;6.18;;;;;;;17.60;68.86;101113.44;4843735;29;20033;-82
2021/06/30 20:05:50;;;;;;;7.97;6.47;;;;;;;18.11;69.09;101226.22;4833559;29;20043;-79
2021/06/30 20:08:18;;;;;;;11.13;6.05;;;;;;;18.06;69.25;101216.03;4824383;29;20364;-79
2021/06/30 20:10:44;;;;;;;9.30;6.60;;;;;;;18.02;69.49;101214.03;4824153;29;20357;-79
2021/06/30 20:13:09;;;;;;;7.45;5.97;;;;;;;17.93;69.65;101205.41;4824186;29;20026;-79
2021/06/30 20:15:35;;;;;;;8.57;6.50;;;;;;;17.88;70.14;101209.88;4828747;29;20058;-81
2021/06/30 20:18:00;;;;;;;9.07;6.43;;;;;;;17.69;70.19;101187.41;4854983;29;20029;-80
2021/06/30 20:20:26;;;;;;;10.57;6.43;;;;;;;17.68;70.37;101202.06;4851558;29;20059;-82
2021/06/30 20:22:51;;;;;;;10.70;6.43;;;;;;;17.73;70.38;101210.34;4844762;29;20026;-82
2021/06/30 20:25:17;;;;;;;7.63;6.13;;;;;;;17.68;70.89;101215.66;4839370;29;20038;-78
2021/06/30 20:27:43;;;;;;;6.53;5.93;;;;;;;17.61;70.89;101218.50;4838060;29;20054;-82
2021/06/30 20:30:09;;;;;;;8.20;6.05;;;;;;;17.55;71.30;101220.28;4844813;29;20058;-83
2021/06/30 20:45:11;;;;;;;8.68;6.65;;;;;;;17.19;72.70;101215.84;5831299;24;20100;31
2021/06/30 20:55:18;;;;;;;8.43;6.40;;;;;;;16.11;73.39;101075.44;4820956;29;20043;-83
2021/06/30 20:57:43;;;;;;;9.18;6.28;;;;;;;17.03;73.61;101232.84;4825684;29;20084;-82
2021/06/30 21:00:11;;;;;;;13.20;6.30;;;;;;;16.25;73.88;101105.97;4825852;29;20038;-83
2021/06/30 21:02:40;;;;;;;9.73;6.53;;;;;;;15.96;73.91;101068.56;4820642;29;20019;-82
2021/06/30 21:05:10;;;;;;;9.15;6.53;;;;;;;16.37;74.12;101140.25;4826736;29;20042;-82
2021/06/30 21:07:37;;;;;;;7.68;6.05;;;;;;;15.80;74.10;101055.59;4829595;29;20027;-83
2021/06/30 21:12:37;;;;;;;9.15;6.22;;;;;;;15.82;74.29;101083.31;4822915;29;20047;-84
2021/06/30 21:15:05;;;;;;;9.25;6.40;;;;;;;15.55;74.52;101050.22;5055226;24;20089;-84
2021/06/30 21:17:30;;;;;;;12.38;6.43;;;;;;;15.78;74.83;101087.53;5493647;24;20059;-83
2021/06/30 21:19:56;;;;;;;8.45;6.50;;;;;;;15.62;75.32;101080.81;4823232;29;20019;-81
2021/06/30 21:22:22;;;;;;;10.95;6.47;;;;;;;15.48;75.25;101079.28;4822125;29;21471;-82
2021/06/30 21:24:48;;;;;;;8.35;6.40;;;;;;;16.59;75.82;101248.44;4825084;29;20026;-84
2021/06/30 21:27:14;;;;;;;7.88;6.70;;;;;;;15.43;75.93;101082.69;4824700;29;20038;-81
2021/06/30 21:29:40;;;;;;;8.77;6.43;;;;;;;16.45;75.96;101242.31;4825427;29;20069;-81
2021/06/30 21:32:08;;;;;;;8.80;6.65;;;;;;;15.76;76.31;101152.06;4825463;29;20492;-82
2021/06/30 21:34:35;;;;;;;8.15;6.60;;;;;;;15.19;76.62;101053.72;4825029;29;20030;-82
2021/06/30 21:37:01;;;;;;;10.38;7.13;;;;;;;15.51;76.47;101119.53;4829245;29;20030;-81
2021/06/30 21:39:27;;;;;;;9.73;6.82;;;;;;;15.17;76.71;101077.53;4829995;29;20074;-81
2021/06/30 21:41:56;;;;;;;7.55;6.75;;;;;;;16.27;77.05;101251.31;4829267;29;20034;-81
2021/06/30 21:44:22;;;;;;;10.82;7.22;;;;;;;15.06;77.24;101076.34;4826572;29;20034;-81
2021/06/30 21:46:48;;;;;;;12.73;6.75;;;;;;;15.46;77.54;101146.47;4826944;29;20031;-79
2021/06/30 21:49:14;;;;;;;13.50;7.22;;;;;;;16.17;77.88;101256.44;4828345;29;20064;-81
2021/06/30 21:51:40;;;;;;;9.57;6.97;;;;;;;16.08;77.99;101250.47;4828401;29;20058;-80
2021/06/30 21:54:06;;;;;;;9.27;7.18;;;;;;;15.53;77.87;101174.41;4828500;29;20038;-82
2021/06/30 21:56:32;;;;;;;9.35;6.75;;;;;;;15.35;78.22;101153.47;4828969;29;20027;-81
2021/06/30 21:59:09;;;;;;;10.73;6.97;;;;;;;16.02;78.27;101264.09;4827841;29;20114;-81
2021/06/30 22:01:36;;;;;;;8.88;6.90;;;;;;;15.62;78.37;101193.91;4828861;29;20458;-82
2021/06/30 22:04:04;;;;;;;9.75;6.72;;;;;;;14.81;78.28;101073.66;4825969;29;20106;-80
2021/06/30 22:06:30;;;;;;;9.00;6.85;;;;;;;14.75;78.49;101071.84;4843105;29;20060;-81
2021/06/30 22:08:56;;;;;;;7.78;6.72;;;;;;;15.21;78.67;101151.94;4829080;29;20023;-81
2021/06/30 22:11:23;;;;;;;12.82;7.75;;;;;;;15.04;78.83;101144.34;4827689;29;20524;-81
2021/06/30 22:13:51;;;;;;;9.40;6.70;;;;;;;15.46;79.11;101190.72;4827630;29;20080;-80
2021/06/30 22:16:17;;;;;;;10.88;7.07;;;;;;;14.69;79.26;101080.81;4828787;29;20038;-81
2021/06/30 22:18:43;;;;;;;11.35;7.18;;;;;;;15.41;79.50;101192.44;4831306;29;20114;-81
2021/06/30 22:21:08;;;;;;;8.98;6.85;;;;;;;14.66;79.37;101065.84;4829449;29;20039;-80
2021/06/30 22:23:36;;;;;;;10.07;6.50;;;;;;;15.37;79.54;101202.88;4835146;29;20144;-81
2021/06/30 22:26:03;;;;;;;10.48;6.70;;;;;;;14.58;79.47;101068.84;4830128;29;20018;-81
2021/06/30 22:28:30;;;;;;;9.88;7.25;;;;;;;14.57;79.63;101057.16;4835122;29;20026;-81
2021/06/30 22:31:00;;;;;;;8.77;6.97;;;;;;;14.51;79.47;101074.28;4821277;29;20039;-81
2021/06/30 22:33:26;;;;;;;9.65;7.93;;;;;;;15.72;80.24;101260.19;4827472;29;20038;-80
2021/06/30 22:35:52;;;;;;;8.85;7.00;;;;;;;14.62;80.41;101080.88;4825950;29;20050;-81
2021/06/30 22:38:21;;;;;;;10.25;7.10;;;;;;;15.27;80.41;101192.53;4825226;29;20019;-81
2021/06/30 22:40:48;;;;;;;9.05;6.65;;;;;;;14.96;79.90;101139.19;4826312;29;20015;-80
2021/06/30 22:43:14;;;;;;;12.35;7.13;;;;;;;14.76;80.51;101114.13;4826865;29;20031;-81
2021/06/30 22:45:41;;;;;;;9.25;7.15;;;;;;;15.63;80.87;101250.66;4823903;29;20027;-80
2021/06/30 22:48:08;;;;;;;9.45;6.70;;;;;;;14.63;80.38;101092.53;4827007;29;20039;-80
2021/06/30 22:50:34;;;;;;;10.85;6.80;;;;;;;15.33;80.51;101206.25;4824850;29;20026;-81
2021/06/30 22:53:03;;;;;;;10.48;7.28;;;;;;;15.46;80.98;101230.53;4825562;29;20026;-81
2021/06/30 22:55:29;;;;;;;7.93;6.50;;;;;;;14.97;80.93;101143.56;4826266;29;20442;-80
2021/06/30 22:57:55;;;;;;;11.05;6.63;;;;;;;14.49;80.81;101070.94;4824755;29;20034;-81
2021/06/30 23:00:22;;;;;;;9.18;6.78;;;;;;;14.89;80.63;101146.53;4825763;29;20038;-81
2021/06/30 23:02:49;;;;;;;10.18;6.90;;;;;;;14.32;80.74;101043.56;4826466;29;20098;-81
2021/06/30 23:05:18;;;;;;;8.23;6.07;;;;;;;14.76;80.81;101116.81;4824653;29;20056;-81
2021/06/30 23:07:44;;;;;;;9.10;6.47;;;;;;;14.76;81.30;101116.81;4825853;29;20027;-80
2021/06/30 23:10:12;;;;;;;9.55;6.25;;;;;;;14.95;80.88;101147.53;4826181;29;20015;-81
2021/06/30 23:12:38;;;;;;;9.70;6.40;;;;;;;15.46;80.85;101239.53;4826338;29;20035;-81
2021/06/30 23:15:06;;;;;;;8.38;6.25;;;;;;;15.46;80.58;101236.81;4825567;29;20031;-81
2021/06/30 23:17:32;;;;;;;7.63;6.40;;;;;;;15.41;81.19;101236.66;4822979;29;20050;-81
2021/06/30 23:19:57;;;;;;;8.68;6.70;;;;;;;15.44;80.83;101238.91;4826312;29;20022;-80
2021/06/30 23:22:23;;;;;;;9.48;6.43;;;;;;;15.46;80.73;101233.25;4794968;29;20043;-80
2021/06/30 23:24:48;;;;;;;8.32;6.07;;;;;;;15.47;80.61;101237.66;4809177;29;20035;-81
2021/06/30 23:27:14;;;;;;;9.30;6.38;;;;;;;15.37;80.53;101219.16;4826207;29;20477;-81
2021/06/30 23:29:39;;;;;;;10.13;6.47;;;;;;;15.33;80.80;101211.66;4830578;29;20067;-81
2021/06/30 23:32:05;;;;;;;9.52;6.25;;;;;;;15.32;80.37;101210.84;4808057;29;20086;-81
2021/06/30 23:34:31;;;;;;;8.98;6.07;;;;;;;15.41;80.69;101223.09;4820673;29;20048;-80
2021/06/30 23:36:56;;;;;;;7.88;5.82;;;;;;;15.43;80.61;101239.13;4825483;29;20031;-81
2021/06/30 23:39:21;;;;;;;6.97;5.90;;;;;;;15.39;80.77;101219.75;4809563;29;20034;-80
2021/06/30 23:41:47;;;;;;;10.10;5.78;;;;;;;15.32;80.67;101213.56;4824898;29;20035;-81
2021/06/30 23:44:12;;;;;;;11.98;6.07;;;;;;;15.42;80.19;101224.75;4810023;29;20068;-80
2021/06/30 23:46:38;;;;;;;7.43;6.15;;;;;;;15.41;80.19;101224.97;4824674;29;20066;-80
2021/06/30 23:49:03;;;;;;;9.60;5.75;;;;;;;15.33;80.33;101222.53;4825309;29;20035;-81
2021/06/30 23:51:29;;;;;;;6.93;5.47;;;;;;;15.39;79.91;101227.88;4825292;29;20453;-80